sensor_id;sensor_type;location;lat;lon;timestamp;pressure;altitude;pressure_sealevel;temperature;humidity
59475;BME280;45288;51.136;16.928;2023-12-28T00:00:51;100169.28;;;4.97;100.00
59475;BME280;45288;51.136;16.928;2023-12-28T00:03:17;100164.69;;;5.20;100.00
59475;BME280;45288;51.136;16.928;2023-12-28T00:05:43;100165.34;;;5.23;100.00
59475;BME280;45288;51.136;16.928;2023-12-28T00:08:08;100161.69;;;5.10;100.00
59475;BME280;45288;51.136;16.928;2023-12-28T00:10:34;100152.59;;;5.01;100.00
59475;BME280;45288;51.136;16.928;2023-12-28T00:13:02;100149.84;;;5.05;100.00
59475;BME280;45288;51.136;16.928;2023-12-28T00:15:28;100152.00;;;4.96;100.00
59475;BME280;45288;51.136;16.928;2023-12-28T00:17:54;100145.47;;;5.05;100.00
59475;BME280;45288;51.136;16.928;2023-12-28T00:20:20;100141.97;;;5.06;100.00
59475;BME280;45288;51.136;16.928;2023-12-28T00:22:45;100138.66;;;5.20;100.00
59475;BME280;45288;51.136;16.928;2023-12-28T00:25:11;100139.38;;;5.06;100.00
59475;BME280;45288;51.136;16.928;2023-12-28T00:27:37;100138.50;;;5.06;100.00
59475;BME280;45288;51.136;16.928;2023-12-28T00:30:07;100133.56;;;4.84;100.00
59475;BME280;45288;51.136;16.928;2023-12-28T00:32:33;100139.03;;;4.77;100.00
59475;BME280;45288;51.136;16.928;2023-12-28T00:34:59;100131.19;;;4.79;100.00
59475;BME280;45288;51.136;16.928;2023-12-28T00:37:25;100129.63;;;5.10;100.00
59475;BME280;45288;51.136;16.928;2023-12-28T00:39:50;100123.97;;;5.01;100.00
59475;BME280;45288;51.136;16.928;2023-12-28T00:42:17;100122.31;;;4.83;100.00
59475;BME280;45288;51.136;16.928;2023-12-28T00:44:44;100122.44;;;5.15;100.00
59475;BME280;45288;51.136;16.928;2023-12-28T00:47:10;100117.41;;;4.94;100.00
59475;BME280;45288;51.136;16.928;2023-12-28T00:49:37;100116.34;;;4.81;100.00
59475;BME280;45288;51.136;16.928;2023-12-28T00:52:02;100115.25;;;4.85;100.00
59475;BME280;45288;51.136;16.928;2023-12-28T00:54:30;100117.56;;;4.91;100.00
59475;BME280;45288;51.136;16.928;2023-12-28T00:56:55;100123.81;;;4.87;100.00
59475;BME280;45288;51.136;16.928;2023-12-28T00:59:22;100116.78;;;4.89;100.00
59475;BME280;45288;51.136;16.928;2023-12-28T01:01:47;100121.66;;;4.95;100.00
59475;BME280;45288;51.136;16.928;2023-12-28T01:04:14;100121.19;;;5.22;100.00
59475;BME280;45288;51.136;16.928;2023-12-28T01:06:40;100127.47;;;5.00;100.00
59475;BME280;45288;51.136;16.928;2023-12-28T01:09:06;100126.63;;;5.17;100.00
59475;BME280;45288;51.136;16.928;2023-12-28T01:11:32;100120.31;;;5.55;100.00
59475;BME280;45288;51.136;16.928;2023-12-28T01:13:58;100110.13;;;5.34;100.00
59475;BME280;45288;51.136;16.928;2023-12-28T01:16:24;100117.53;;;5.42;100.00
59475;BME280;45288;51.136;16.928;2023-12-28T01:18:50;100111.38;;;5.27;100.00
59475;BME280;45288;51.136;16.928;2023-12-28T01:21:16;100121.03;;;5.25;100.00
59475;BME280;45288;51.136;16.928;2023-12-28T01:23:43;100110.34;;;5.14;100.00
59475;BME280;45288;51.136;16.928;2023-12-28T01:26:14;100116.56;;;5.11;100.00
59475;BME280;45288;51.136;16.928;2023-12-28T01:28:41;100114.16;;;5.24;100.00
59475;BME280;45288;51.136;16.928;2023-12-28T01:31:09;100104.81;;;5.20;100.00
59475;BME280;45288;51.136;16.928;2023-12-28T01:33:34;100109.44;;;5.31;100.00
59475;BME280;45288;51.136;16.928;2023-12-28T01:36:02;100114.78;;;5.45;100.00
59475;BME280;45288;51.136;16.928;2023-12-28T01:38:28;100116.91;;;5.70;100.00
59475;BME280;45288;51.136;16.928;2023-12-28T01:40:53;100101.88;;;5.75;100.00
59475;BME280;45288;51.136;16.928;2023-12-28T01:43:19;100085.75;;;5.68;100.00
59475;BME280;45288;51.136;16.928;2023-12-28T01:45:45;100082.06;;;5.23;100.00
59475;BME280;45288;51.136;16.928;2023-12-28T01:48:12;100077.59;;;5.10;100.00
59475;BME280;45288;51.136;16.928;2023-12-28T01:50:39;100082.19;;;5.05;100.00
59475;BME280;45288;51.136;16.928;2023-12-28T01:53:06;100080.53;;;4.86;100.00
59475;BME280;45288;51.136;16.928;2023-12-28T01:55:33;100076.72;;;4.76;100.00
59475;BME280;45288;51.136;16.928;2023-12-28T01:58:00;100078.22;;;4.80;100.00
59475;BME280;45288;51.136;16.928;2023-12-28T02:00:26;100074.84;;;4.95;100.00
59475;BME280;45288;51.136;16.928;2023-12-28T02:02:52;100058.00;;;5.02;100.00
59475;BME280;45288;51.136;16.928;2023-12-28T02:05:18;100055.16;;;5.07;100.00
59475;BME280;45288;51.136;16.928;2023-12-28T02:07:44;100051.41;;;5.13;100.00
59475;BME280;45288;51.136;16.928;2023-12-28T02:10:10;100047.75;;;5.33;100.00
59475;BME280;45288;51.136;16.928;2023-12-28T02:12:36;100049.69;;;5.45;100.00
59475;BME280;45288;51.136;16.928;2023-12-28T02:15:02;100048.41;;;5.36;100.00
59475;BME280;45288;51.136;16.928;2023-12-28T02:17:47;100040.47;;;5.55;100.00
59475;BME280;45288;51.136;16.928;2023-12-28T02:20:19;100044.56;;;5.43;100.00
59475;BME280;45288;51.136;16.928;2023-12-28T02:22:46;100034.81;;;5.47;100.00
59475;BME280;45288;51.136;16.928;2023-12-28T02:25:12;100033.59;;;5.21;100.00
59475;BME280;45288;51.136;16.928;2023-12-28T02:27:41;100030.16;;;5.05;100.00
59475;BME280;45288;51.136;16.928;2023-12-28T02:30:08;100028.56;;;5.18;100.00
59475;BME280;45288;51.136;16.928;2023-12-28T02:35:37;100039.09;;;5.32;100.00
59475;BME280;45288;51.136;16.928;2023-12-28T02:38:09;100032.88;;;5.19;100.00
59475;BME280;45288;51.136;16.928;2023-12-28T02:40:42;100022.78;;;5.44;100.00
59475;BME280;45288;51.136;16.928;2023-12-28T02:43:10;100012.13;;;5.33;100.00
59475;BME280;45288;51.136;16.928;2023-12-28T02:45:36;100006.16;;;5.31;100.00
59475;BME280;45288;51.136;16.928;2023-12-28T02:48:03;100014.91;;;5.62;100.00
59475;BME280;45288;51.136;16.928;2023-12-28T02:50:30;100016.50;;;5.64;100.00
59475;BME280;45288;51.136;16.928;2023-12-28T02:52:56;100010.66;;;5.45;100.00
59475;BME280;45288;51.136;16.928;2023-12-28T10:08:24;100022.22;;;10.53;70.56
59475;BME280;45288;51.136;16.928;2023-12-28T10:10:51;100028.69;;;10.60;70.70
59475;BME280;45288;51.136;16.928;2023-12-28T10:13:20;100040.50;;;10.66;70.93
59475;BME280;45288;51.136;16.928;2023-12-28T10:15:47;100034.75;;;10.61;72.38
59475;BME280;45288;51.136;16.928;2023-12-28T10:18:13;100039.66;;;10.65;72.39
59475;BME280;45288;51.136;16.928;2023-12-28T10:20:39;100036.81;;;10.68;73.04
59475;BME280;45288;51.136;16.928;2023-12-28T10:23:04;100023.28;;;10.51;73.71
59475;BME280;45288;51.136;16.928;2023-12-28T10:25:32;100043.75;;;10.69;75.03
59475;BME280;45288;51.136;16.928;2023-12-28T10:28:02;100059.09;;;10.52;75.80
59475;BME280;45288;51.136;16.928;2023-12-28T10:30:29;100052.97;;;10.40;76.83
59475;BME280;45288;51.136;16.928;2023-12-28T10:32:55;100049.84;;;10.35;78.71
59475;BME280;45288;51.136;16.928;2023-12-28T10:35:21;100060.13;;;10.38;78.88
59475;BME280;45288;51.136;16.928;2023-12-28T10:37:49;100049.84;;;10.35;79.70
59475;BME280;45288;51.136;16.928;2023-12-28T10:40:20;100066.25;;;10.25;79.86
59475;BME280;45288;51.136;16.928;2023-12-28T10:42:56;100073.47;;;10.35;80.52
59475;BME280;45288;51.136;16.928;2023-12-28T10:45:26;100073.16;;;10.26;81.88
59475;BME280;45288;51.136;16.928;2023-12-28T10:48:11;100067.88;;;10.15;81.70
59475;BME280;45288;51.136;16.928;2023-12-28T10:50:41;100064.00;;;10.08;82.83
59475;BME280;45288;51.136;16.928;2023-12-28T10:53:30;100056.88;;;10.10;83.81
59475;BME280;45288;51.136;16.928;2023-12-28T10:58:50;100047.69;;;10.04;84.96
59475;BME280;45288;51.136;16.928;2023-12-28T11:01:24;100043.81;;;9.97;85.93
59475;BME280;45288;51.136;16.928;2023-12-28T11:04:06;100029.88;;;9.97;86.35
59475;BME280;45288;51.136;16.928;2023-12-28T11:06:35;100038.91;;;9.93;86.21
59475;BME280;45288;51.136;16.928;2023-12-28T11:09:01;100043.91;;;9.96;87.40
59475;BME280;45288;51.136;16.928;2023-12-28T11:11:29;100042.47;;;9.92;87.18
59475;BME280;45288;51.136;16.928;2023-12-28T11:13:56;100038.25;;;10.02;87.77
59475;BME280;45288;51.136;16.928;2023-12-28T11:16:22;100041.28;;;9.96;87.76
59475;BME280;45288;51.136;16.928;2023-12-28T11:18:49;100039.06;;;10.02;88.07
59475;BME280;45288;51.136;16.928;2023-12-28T11:21:16;100033.63;;;10.17;88.23
59475;BME280;45288;51.136;16.928;2023-12-28T11:23:43;100030.09;;;10.18;87.66
59475;BME280;45288;51.136;16.928;2023-12-28T11:26:20;100035.44;;;10.16;87.61
59475;BME280;45288;51.136;16.928;2023-12-28T11:28:47;100025.16;;;10.13;87.87
59475;BME280;45288;51.136;16.928;2023-12-28T11:31:17;100028.84;;;10.11;88.57
59475;BME280;45288;51.136;16.928;2023-12-28T11:33:47;100025.06;;;10.15;89.64
59475;BME280;45288;51.136;16.928;2023-12-28T11:36:25;100023.00;;;10.07;89.51
59475;BME280;45288;51.136;16.928;2023-12-28T11:38:53;100019.19;;;10.11;89.77
59475;BME280;45288;51.136;16.928;2023-12-28T11:41:22;100027.47;;;10.18;88.67
59475;BME280;45288;51.136;16.928;2023-12-28T11:43:54;100030.81;;;10.20;89.85
59475;BME280;45288;51.136;16.928;2023-12-28T11:46:21;100023.59;;;10.35;88.77
59475;BME280;45288;51.136;16.928;2023-12-28T11:48:47;100021.75;;;10.48;88.36
59475;BME280;45288;51.136;16.928;2023-12-28T11:51:13;100016.38;;;10.50;87.80
59475;BME280;45288;51.136;16.928;2023-12-28T11:53:40;100010.53;;;10.46;87.40
59475;BME280;45288;51.136;16.928;2023-12-28T11:56:07;100006.69;;;10.50;87.69
59475;BME280;45288;51.136;16.928;2023-12-28T11:58:35;99999.66;;;10.51;88.14
59475;BME280;45288;51.136;16.928;2023-12-28T12:01:02;100007.34;;;10.65;86.64
59475;BME280;45288;51.136;16.928;2023-12-28T12:03:31;100008.06;;;10.67;86.86
59475;BME280;45288;51.136;16.928;2023-12-28T12:05:56;100006.50;;;10.64;86.51
59475;BME280;45288;51.136;16.928;2023-12-28T12:08:23;100005.78;;;10.62;85.91
59475;BME280;45288;51.136;16.928;2023-12-28T12:10:59;100000.78;;;10.70;85.54
59475;BME280;45288;51.136;16.928;2023-12-28T12:13:27;100006.03;;;10.59;86.12
59475;BME280;45288;51.136;16.928;2023-12-28T12:15:53;100005.28;;;10.46;86.64
59475;BME280;45288;51.136;16.928;2023-12-28T12:18:19;100004.94;;;10.62;85.74
59475;BME280;45288;51.136;16.928;2023-12-28T12:20:45;99998.72;;;10.52;85.31
59475;BME280;45288;51.136;16.928;2023-12-28T12:23:11;100009.31;;;10.39;85.05
59475;BME280;45288;51.136;16.928;2023-12-28T12:25:40;100006.28;;;10.32;85.57
59475;BME280;45288;51.136;16.928;2023-12-28T12:28:06;100007.16;;;10.33;86.36
59475;BME280;45288;51.136;16.928;2023-12-28T12:30:32;99993.13;;;10.21;86.53
59475;BME280;45288;51.136;16.928;2023-12-28T12:32:58;99997.28;;;10.12;86.89
59475;BME280;45288;51.136;16.928;2023-12-28T12:35:24;100001.47;;;10.15;87.65
59475;BME280;45288;51.136;16.928;2023-12-28T12:37:50;99992.16;;;10.22;86.85
59475;BME280;45288;51.136;16.928;2023-12-28T12:40:17;99992.53;;;10.17;87.37
59475;BME280;45288;51.136;16.928;2023-12-28T12:42:54;99995.97;;;10.18;87.28
59475;BME280;45288;51.136;16.928;2023-12-28T12:45:21;100002.25;;;10.28;88.33
59475;BME280;45288;51.136;16.928;2023-12-28T12:47:47;99991.50;;;10.31;86.38
59475;BME280;45288;51.136;16.928;2023-12-28T12:50:15;99990.59;;;10.19;86.80
59475;BME280;45288;51.136;16.928;2023-12-28T12:52:42;99995.94;;;10.31;87.00
59475;BME280;45288;51.136;16.928;2023-12-28T12:55:12;99997.41;;;10.22;86.35
59475;BME280;45288;51.136;16.928;2023-12-28T12:57:39;100005.84;;;10.14;86.89
59475;BME280;45288;51.136;16.928;2023-12-28T13:00:05;100004.94;;;10.26;86.75
59475;BME280;45288;51.136;16.928;2023-12-28T13:02:34;100001.19;;;10.31;86.68
59475;BME280;45288;51.136;16.928;2023-12-28T13:05:02;100005.91;;;10.25;86.73
59475;BME280;45288;51.136;16.928;2023-12-28T13:07:31;100004.03;;;10.28;86.14
59475;BME280;45288;51.136;16.928;2023-12-28T13:09:57;100004.09;;;10.26;86.29
59475;BME280;45288;51.136;16.928;2023-12-28T13:12:23;100002.31;;;10.26;86.92
59475;BME280;45288;51.136;16.928;2023-12-28T13:14:50;100008.81;;;10.34;86.56
59475;BME280;45288;51.136;16.928;2023-12-28T13:17:16;99997.53;;;10.20;87.10
59475;BME280;45288;51.136;16.928;2023-12-28T13:19:44;100016.41;;;10.25;87.40
59475;BME280;45288;51.136;16.928;2023-12-28T13:22:10;100017.66;;;10.44;86.20
59475;BME280;45288;51.136;16.928;2023-12-28T13:24:36;100015.53;;;10.49;85.99
59475;BME280;45288;51.136;16.928;2023-12-28T13:27:02;100014.22;;;10.43;85.95
59475;BME280;45288;51.136;16.928;2023-12-28T13:29:28;100024.50;;;10.58;84.89
59475;BME280;45288;51.136;16.928;2023-12-28T13:31:55;100020.56;;;10.52;84.20
59475;BME280;45288;51.136;16.928;2023-12-28T13:34:21;100013.72;;;10.38;84.39
59475;BME280;45288;51.136;16.928;2023-12-28T13:36:48;100018.59;;;10.32;85.02
59475;BME280;45288;51.136;16.928;2023-12-28T13:39:14;100015.03;;;10.33;84.81
59475;BME280;45288;51.136;16.928;2023-12-28T13:41:40;100013.78;;;10.25;85.51
59475;BME280;45288;51.136;16.928;2023-12-28T13:44:06;100023.84;;;10.32;85.18
59475;BME280;45288;51.136;16.928;2023-12-28T13:46:36;100026.22;;;10.35;84.19
59475;BME280;45288;51.136;16.928;2023-12-28T13:49:02;100027.34;;;10.43;83.80
59475;BME280;45288;51.136;16.928;2023-12-28T13:51:32;100023.41;;;10.38;83.29
59475;BME280;45288;51.136;16.928;2023-12-28T13:53:58;100014.66;;;10.37;83.51
59475;BME280;45288;51.136;16.928;2023-12-28T13:56:24;100015.91;;;10.56;82.66
59475;BME280;45288;51.136;16.928;2023-12-28T13:58:50;100020.44;;;10.54;83.85
59475;BME280;45288;51.136;16.928;2023-12-28T14:01:16;100019.13;;;10.48;82.22
59475;BME280;45288;51.136;16.928;2023-12-28T14:03:42;100021.47;;;10.40;82.95
59475;BME280;45288;51.136;16.928;2023-12-28T14:06:09;100044.81;;;10.32;83.50
59475;BME280;45288;51.136;16.928;2023-12-28T14:08:35;100044.22;;;10.28;83.90
59475;BME280;45288;51.136;16.928;2023-12-28T14:11:02;100049.63;;;10.38;83.58
59475;BME280;45288;51.136;16.928;2023-12-28T14:13:28;100048.41;;;10.31;83.75
59475;BME280;45288;51.136;16.928;2023-12-28T14:15:54;100045.88;;;10.05;84.31
59475;BME280;45288;51.136;16.928;2023-12-28T14:18:20;100050.91;;;10.08;84.29
59475;BME280;45288;51.136;16.928;2023-12-28T14:20:46;100052.47;;;10.11;83.82
59475;BME280;45288;51.136;16.928;2023-12-28T14:23:12;100050.56;;;10.13;83.96
59475;BME280;45288;51.136;16.928;2023-12-28T14:25:38;100053.13;;;10.01;84.50
59475;BME280;45288;51.136;16.928;2023-12-28T14:28:05;100056.97;;;9.85;85.05
59475;BME280;45288;51.136;16.928;2023-12-28T14:30:31;100048.22;;;9.97;85.06
59475;BME280;45288;51.136;16.928;2023-12-28T14:32:57;100052.28;;;10.01;84.75
59475;BME280;45288;51.136;16.928;2023-12-28T14:35:23;100056.66;;;10.37;82.66
59475;BME280;45288;51.136;16.928;2023-12-28T14:37:51;100046.56;;;10.55;80.97
59475;BME280;45288;51.136;16.928;2023-12-28T14:40:16;100046.63;;;10.07;82.87
59475;BME280;45288;51.136;16.928;2023-12-28T14:42:42;100048.09;;;9.98;83.22
59475;BME280;45288;51.136;16.928;2023-12-28T14:45:08;100039.25;;;10.12;82.92
59475;BME280;45288;51.136;16.928;2023-12-28T14:47:34;100043.19;;;10.18;82.46
59475;BME280;45288;51.136;16.928;2023-12-28T14:50:01;100040.22;;;10.46;82.70
59475;BME280;45288;51.136;16.928;2023-12-28T14:52:27;100038.78;;;10.18;81.91
59475;BME280;45288;51.136;16.928;2023-12-28T14:54:54;100044.63;;;10.22;81.60
59475;BME280;45288;51.136;16.928;2023-12-28T14:57:21;100038.19;;;10.15;81.55
59475;BME280;45288;51.136;16.928;2023-12-28T14:59:47;100036.88;;;10.20;81.29
59475;BME280;45288;51.136;16.928;2023-12-28T15:02:13;100036.94;;;10.32;79.99
59475;BME280;45288;51.136;16.928;2023-12-28T15:04:39;100034.72;;;9.90;81.80
59475;BME280;45288;51.136;16.928;2023-12-28T15:07:06;100030.75;;;9.60;83.84
59475;BME280;45288;51.136;16.928;2023-12-28T15:09:32;100031.25;;;9.66;83.86
59475;BME280;45288;51.136;16.928;2023-12-28T15:11:59;100031.63;;;9.72;83.02
59475;BME280;45288;51.136;16.928;2023-12-28T15:14:26;100022.34;;;9.68;83.46
59475;BME280;45288;51.136;16.928;2023-12-28T15:16:52;100018.09;;;9.42;84.32
59475;BME280;45288;51.136;16.928;2023-12-28T15:19:19;100015.97;;;9.83;82.39
59475;BME280;45288;51.136;16.928;2023-12-28T15:21:45;100018.59;;;9.83;81.88
59475;BME280;45288;51.136;16.928;2023-12-28T15:24:12;100023.84;;;9.83;81.85
59475;BME280;45288;51.136;16.928;2023-12-28T15:26:38;100020.53;;;9.69;82.61
59475;BME280;45288;51.136;16.928;2023-12-28T15:29:04;100021.03;;;9.37;85.21
59475;BME280;45288;51.136;16.928;2023-12-28T15:31:30;100022.50;;;9.41;84.80
59475;BME280;45288;51.136;16.928;2023-12-28T15:33:56;100019.06;;;9.41;85.70
59475;BME280;45288;51.136;16.928;2023-12-28T15:36:22;100012.50;;;9.59;84.44
59475;BME280;45288;51.136;16.928;2023-12-28T15:38:48;100020.31;;;9.72;83.33
59475;BME280;45288;51.136;16.928;2023-12-28T15:41:14;100015.75;;;9.50;84.46
59475;BME280;45288;51.136;16.928;2023-12-28T15:43:40;100015.63;;;9.27;85.66
59475;BME280;45288;51.136;16.928;2023-12-28T15:46:06;100019.63;;;9.20;86.06
59475;BME280;45288;51.136;16.928;2023-12-28T15:48:32;100014.19;;;8.98;87.47
59475;BME280;45288;51.136;16.928;2023-12-28T15:50:58;100017.84;;;8.82;88.02
59475;BME280;45288;51.136;16.928;2023-12-28T15:53:23;100023.91;;;8.83;88.34
59475;BME280;45288;51.136;16.928;2023-12-28T15:55:49;100024.44;;;8.88;87.92
59475;BME280;45288;51.136;16.928;2023-12-28T15:58:15;100023.19;;;9.06;87.14
59475;BME280;45288;51.136;16.928;2023-12-28T16:00:41;100026.00;;;8.90;87.97
59475;BME280;45288;51.136;16.928;2023-12-28T16:03:10;100026.13;;;8.63;89.13
59475;BME280;45288;51.136;16.928;2023-12-28T16:05:36;100022.44;;;8.53;90.42
59475;BME280;45288;51.136;16.928;2023-12-28T16:08:05;100026.16;;;8.36;91.74
59475;BME280;45288;51.136;16.928;2023-12-28T16:10:31;100021.25;;;8.32;92.35
59475;BME280;45288;51.136;16.928;2023-12-28T16:12:57;100019.31;;;8.08;92.80
59475;BME280;45288;51.136;16.928;2023-12-28T16:15:23;100022.53;;;8.12;93.51
59475;BME280;45288;51.136;16.928;2023-12-28T16:17:49;100019.94;;;8.12;94.12
59475;BME280;45288;51.136;16.928;2023-12-28T16:20:17;100013.41;;;8.04;94.46
59475;BME280;45288;51.136;16.928;2023-12-28T16:22:43;100020.66;;;8.14;94.37
59475;BME280;45288;51.136;16.928;2023-12-28T16:25:09;100016.84;;;8.32;92.50
59475;BME280;45288;51.136;16.928;2023-12-28T16:27:35;100017.84;;;8.17;93.32
59475;BME280;45288;51.136;16.928;2023-12-28T16:30:01;100013.03;;;8.23;93.21
59475;BME280;45288;51.136;16.928;2023-12-28T16:32:27;100004.81;;;8.02;93.97
59475;BME280;45288;51.136;16.928;2023-12-28T16:34:52;100015.31;;;8.15;93.22
59475;BME280;45288;51.136;16.928;2023-12-28T16:37:18;100012.84;;;8.26;92.91
59475;BME280;45288;51.136;16.928;2023-12-28T16:39:44;100008.84;;;8.21;92.87
59475;BME280;45288;51.136;16.928;2023-12-28T16:42:10;100004.06;;;8.27;92.08
59475;BME280;45288;51.136;16.928;2023-12-28T16:44:36;100001.53;;;8.26;92.76
59475;BME280;45288;51.136;16.928;2023-12-28T16:47:02;100002.06;;;8.31;92.15
59475;BME280;45288;51.136;16.928;2023-12-28T16:49:28;100004.75;;;8.44;90.98
59475;BME280;45288;51.136;16.928;2023-12-28T16:51:54;100001.94;;;8.20;92.26
59475;BME280;45288;51.136;16.928;2023-12-28T16:54:19;100017.06;;;8.29;91.62
59475;BME280;45288;51.136;16.928;2023-12-28T16:56:45;100018.84;;;8.01;93.47
59475;BME280;45288;51.136;16.928;2023-12-28T16:59:11;100009.91;;;8.31;91.36
59475;BME280;45288;51.136;16.928;2023-12-28T17:01:37;100009.47;;;8.12;92.14
59475;BME280;45288;51.136;16.928;2023-12-28T17:04:03;100025.13;;;7.99;93.45
59475;BME280;45288;51.136;16.928;2023-12-28T17:06:30;100023.25;;;8.01;94.05
59475;BME280;45288;51.136;16.928;2023-12-28T17:08:56;100028.34;;;8.02;93.59
59475;BME280;45288;51.136;16.928;2023-12-28T17:11:22;100031.84;;;8.16;92.91
59475;BME280;45288;51.136;16.928;2023-12-28T17:13:47;100033.22;;;8.08;93.18
59475;BME280;45288;51.136;16.928;2023-12-28T17:16:14;100023.28;;;8.14;92.93
59475;BME280;45288;51.136;16.928;2023-12-28T17:18:40;100025.81;;;7.88;94.83
59475;BME280;45288;51.136;16.928;2023-12-28T17:21:12;100024.81;;;8.03;97.69
59475;BME280;45288;51.136;16.928;2023-12-28T17:23:47;100028.31;;;7.90;95.22
59475;BME280;45288;51.136;16.928;2023-12-28T17:26:25;100026.66;;;7.89;96.24
59475;BME280;45288;51.136;16.928;2023-12-28T17:29:04;100023.78;;;7.79;95.83
59475;BME280;45288;51.136;16.928;2023-12-28T17:31:34;100022.69;;;7.69;97.44
59475;BME280;45288;51.136;16.928;2023-12-28T17:34:02;100025.69;;;7.62;97.91
59475;BME280;45288;51.136;16.928;2023-12-28T17:36:28;100032.09;;;7.71;97.58
59475;BME280;45288;51.136;16.928;2023-12-28T17:39:00;100024.97;;;7.88;97.04
59475;BME280;45288;51.136;16.928;2023-12-28T17:41:36;100022.94;;;7.78;97.34
59475;BME280;45288;51.136;16.928;2023-12-28T17:44:08;100021.44;;;7.74;98.27
59475;BME280;45288;51.136;16.928;2023-12-28T17:46:59;100022.41;;;7.73;98.79
59475;BME280;45288;51.136;16.928;2023-12-28T17:49:30;100019.63;;;7.89;97.02
59475;BME280;45288;51.136;16.928;2023-12-28T17:51:58;100024.91;;;8.02;95.63
59475;BME280;45288;51.136;16.928;2023-12-28T17:54:24;100017.44;;;8.23;94.02
59475;BME280;45288;51.136;16.928;2023-12-28T17:56:51;100016.69;;;8.61;91.28
59475;BME280;45288;51.136;16.928;2023-12-28T17:59:17;100025.19;;;8.77;88.91
59475;BME280;45288;51.136;16.928;2023-12-28T18:01:43;100033.47;;;8.71;89.83
59475;BME280;45288;51.136;16.928;2023-12-28T18:04:09;100027.59;;;8.80;88.18
59475;BME280;45288;51.136;16.928;2023-12-28T18:06:34;100020.25;;;8.85;87.72
59475;BME280;45288;51.136;16.928;2023-12-28T18:09:00;100017.53;;;8.74;88.18
59475;BME280;45288;51.136;16.928;2023-12-28T18:11:26;100023.72;;;8.60;89.35
59475;BME280;45288;51.136;16.928;2023-12-28T18:13:52;100031.06;;;8.28;91.61
59475;BME280;45288;51.136;16.928;2023-12-28T18:16:18;100030.81;;;8.45;90.30
59475;BME280;45288;51.136;16.928;2023-12-28T18:18:47;100022.22;;;8.43;89.72
59475;BME280;45288;51.136;16.928;2023-12-28T18:21:13;100021.47;;;8.01;93.17
59475;BME280;45288;51.136;16.928;2023-12-28T18:23:39;100031.28;;;7.98;93.40
59475;BME280;45288;51.136;16.928;2023-12-28T18:26:05;100022.88;;;8.20;92.24
59475;BME280;45288;51.136;16.928;2023-12-28T18:28:30;100021.00;;;8.22;91.68
59475;BME280;45288;51.136;16.928;2023-12-28T18:30:57;100029.69;;;8.49;89.79
59475;BME280;45288;51.136;16.928;2023-12-28T18:33:23;100023.50;;;8.63;88.63
59475;BME280;45288;51.136;16.928;2023-12-28T18:35:50;100025.50;;;8.60;88.71
59475;BME280;45288;51.136;16.928;2023-12-28T18:38:16;100022.38;;;8.67;88.01
59475;BME280;45288;51.136;16.928;2023-12-28T18:40:41;100025.50;;;8.60;87.90
59475;BME280;45288;51.136;16.928;2023-12-28T18:43:15;100023.19;;;8.55;88.24
59475;BME280;45288;51.136;16.928;2023-12-28T18:45:44;100022.25;;;8.56;88.34
59475;BME280;45288;51.136;16.928;2023-12-28T18:48:13;100021.28;;;8.44;89.20
59475;BME280;45288;51.136;16.928;2023-12-28T18:50:40;100021.63;;;8.25;90.88
59475;BME280;45288;51.136;16.928;2023-12-28T18:53:06;100018.91;;;8.27;90.94
59475;BME280;45288;51.136;16.928;2023-12-28T18:55:34;100023.94;;;8.30;90.96
59475;BME280;45288;51.136;16.928;2023-12-28T18:58:00;100019.06;;;7.98;93.05
59475;BME280;45288;51.136;16.928;2023-12-28T19:00:25;100024.94;;;8.15;92.09
59475;BME280;45288;51.136;16.928;2023-12-28T19:02:51;100027.00;;;8.37;91.55
59475;BME280;45288;51.136;16.928;2023-12-28T19:05:17;100020.19;;;8.34;91.23
59475;BME280;45288;51.136;16.928;2023-12-28T19:07:44;100025.81;;;8.28;91.38
59475;BME280;45288;51.136;16.928;2023-12-28T19:10:10;100021.53;;;8.27;91.13
59475;BME280;45288;51.136;16.928;2023-12-28T19:12:36;100013.63;;;8.41;90.64
59475;BME280;45288;51.136;16.928;2023-12-28T19:15:01;100020.81;;;8.38;90.20
59475;BME280;45288;51.136;16.928;2023-12-28T19:17:27;100021.00;;;8.22;91.21
59475;BME280;45288;51.136;16.928;2023-12-28T19:19:53;100020.34;;;8.05;92.57
59475;BME280;45288;51.136;16.928;2023-12-28T19:22:19;100021.38;;;8.16;91.54
59475;BME280;45288;51.136;16.928;2023-12-28T19:24:45;100021.91;;;8.21;91.41
59475;BME280;45288;51.136;16.928;2023-12-28T19:27:12;100027.16;;;8.21;91.50
59475;BME280;45288;51.136;16.928;2023-12-28T19:29:38;100026.63;;;8.16;91.34
59475;BME280;45288;51.136;16.928;2023-12-28T19:32:04;100020.06;;;7.69;94.99
59475;BME280;45288;51.136;16.928;2023-12-28T19:34:30;100028.34;;;8.02;93.36
59475;BME280;45288;51.136;16.928;2023-12-28T19:36:56;100024.72;;;7.78;94.36
59475;BME280;45288;51.136;16.928;2023-12-28T19:39:21;100027.69;;;7.86;94.71
59475;BME280;45288;51.136;16.928;2023-12-28T19:41:47;100029.22;;;8.03;92.76
59475;BME280;45288;51.136;16.928;2023-12-28T19:44:13;100022.59;;;7.97;93.38
59475;BME280;45288;51.136;16.928;2023-12-28T19:46:39;100038.69;;;7.91;94.50
59475;BME280;45288;51.136;16.928;2023-12-28T19:49:05;100038.31;;;8.10;92.61
59475;BME280;45288;51.136;16.928;2023-12-28T19:51:30;100033.41;;;8.18;92.36
59475;BME280;45288;51.136;16.928;2023-12-28T19:53:56;100036.91;;;8.19;91.92
59475;BME280;45288;51.136;16.928;2023-12-28T19:56:22;100032.22;;;8.24;91.22
59475;BME280;45288;51.136;16.928;2023-12-28T19:58:48;100024.00;;;8.16;91.40
59475;BME280;45288;51.136;16.928;2023-12-28T20:01:13;100031.59;;;7.93;95.03
59475;BME280;45288;51.136;16.928;2023-12-28T20:03:39;100028.34;;;8.02;93.24